Crooked Creek Research Lab Weather observations

Data are for 10 minute period ending at time listed.
 Day   Time    Ave.   Ave.  Ave.  Vector   Max.   Stn.    Total    Solar   Ave.   Snow 
  of    of     Air    Rel.  Wind   Wind    Wind   Baro.  Precip.   Rad.    Soil   Depth
Year   Day     Temp.  Hum.  Speed  Dir.    Gust   Pres.                    Temp.       
2014   (PST)    F      %     mph   deg.    mph     mb.     in.     W/m2     F      in. 
---------------------------------------------------------------------------------------  
 275    0:00   35.6    88    3.7   350     11.6   699.5    0.00       0    999.0    -0.5
 275    0:10   35.5    88    5.1   337      9.3   699.5    0.00       0    999.0    -0.5
 275    0:20   35.2    88    3.4   339      9.6   699.5    0.00       0    999.0    -0.5
 275    0:30   34.7    88    3.8   334      8.0   699.4    0.00       0    999.0    -0.5
 275    0:40   34.5    88    4.5   339      8.6   699.4    0.00       0    999.0    -0.5
 275    0:50   34.1    89    2.0   359      7.1   699.6    0.00       0    999.0    -0.5
 275    1:00   33.9    89    1.3    11      5.0   699.5    0.00       0    999.0    -0.5
 275    1:10   33.5    90    1.4   350      3.8   699.3    0.00       0    999.0    -0.5
 275    1:20   34.0    89    3.6    14     12.9   699.4    0.00       0    999.0    -0.5
 275    1:30   34.6    87    4.4    32     12.0   699.3    0.00       0    999.0    -0.5
 275    1:40   34.7    86    4.4    26     10.6   699.2    0.00       0    999.0    -0.5
 275    1:50   34.3    87    3.7    17      9.9   699.1    0.00       0    999.0    -0.5
 275    2:00   33.8    89    3.3    32      7.2   699.2    0.00       0    999.0    -0.5
 275    2:10   33.4    89    4.7    37      9.3   699.1    0.00       0    999.0    -0.5
 275    2:20   33.0    90    5.5    39      8.9   699.1    0.00       0    999.0    -0.5
 275    2:30   32.4    91    5.6    42     10.2   699.1    0.00       0    999.0    -0.5
 275    2:40   32.2    92    5.1    42      8.6   699.1    0.00       0    999.0    -0.5
 275    2:50   31.9    93    2.6    22      6.7   699.1    0.00       0    999.0    -0.5
 275    3:00   31.4    94    2.7    23      7.0   699.2    0.00       0    999.0    -0.5
 275    3:10   31.2    95    3.9   332      7.0   699.1    0.00       0    999.0    -0.6
 275    3:20   30.6    96    1.2   355      5.5   699.3    0.00       0    999.0    -0.5
 275    3:30   30.3    97    1.2   358      4.1   699.3    0.00       0    999.0    -0.6
 275    3:40   30.1    97    1.1   359      4.8   699.3    0.00       0    999.0    -0.6
 275    3:50   30.0    97    5.1   321      9.6   699.3    0.00       0    999.0    -0.6
 275    4:00   30.2    96    5.9   324     10.8   699.4    0.00       0    999.0    -0.6
 275    4:10   30.1    95    6.4   319     10.0   699.3    0.00       0    999.0    -0.6
 275    4:20   29.8    94    6.3   316     10.8   699.5    0.00       0    999.0    -0.6
 275    4:30   29.7    94    5.7   318      9.9   699.5    0.00       0    999.0    -0.6
 275    4:40   29.7    91    4.5   321      9.1   699.5    0.00       0    999.0    -0.6
 275    4:50   29.2    90    2.5   326      8.3   699.7    0.00       0    999.0    -0.6
 275    5:00   28.9    90    2.2   335      5.7   699.6    0.00       0    999.0    -0.6
 275    5:10   28.6    91    3.3   334      6.9   699.7    0.00       0    999.0    -0.6
 275    5:20   28.2    91    1.5   103      3.7   699.8    0.00       0    999.0    -0.7
 275    5:30   27.7    92    0.7    92      1.8   699.9    0.00       1    999.0    -0.6
 275    5:40   27.1    92    0.4    17      2.1   700.1    0.00       4    999.0    -0.7
 275    5:50   26.8    95    0.6   343      2.6   700.1    0.00       7    999.0    -0.6
 275    6:00   26.9    96    3.3   323      6.2   700.1    0.00      10    999.0    -0.8
 275    6:10   27.7    96    3.1   345      7.8   700.4    0.00      13    999.0    -0.9
 275    6:20   27.4    94    0.8   102      3.0   700.4    0.00      15    999.0    -0.9
 275    6:30   26.9    96    1.6   117      3.4   700.4    0.00      17    999.0    -0.8
 275    6:40   27.4    95    1.7   120      4.7   700.4    0.00      19    999.0    -0.8
 275    6:50   27.4    94    2.0   147      4.1   700.5    0.00      20    999.0    -0.8
 275    7:00   27.8    93    1.3   193      3.2   700.6    0.00      24    999.0    -0.8
 275    7:10   31.0    88    2.7   163      9.9   700.6    0.00     260    999.0    -0.7
 275    7:20   35.5    77    3.6   206     10.4   700.8    0.00     331    999.0    -0.7
 275    7:30   37.1    73    3.1   220      9.3   700.7    0.00     366    999.0    -0.8
 275    7:40   38.3    69    2.3   191      8.0   701.0    0.00     396    999.0    -0.8
 275    7:50   38.4    68    3.7   206     11.8   701.0    0.00     427    999.0    -0.7
 275    8:00   39.2    66    2.5   181      9.5   701.2    0.00     456    999.0    -0.7
 275    8:10   39.6    63    3.0   226      7.4   701.3    0.00     484    999.0    -0.7
 275    8:20   39.7    61    3.4   227      6.9   701.4    0.00     511    999.0    -0.7
 275    8:30   40.2    59    3.5   220      7.6   701.5    0.00     539    999.0    -0.7
 275    8:40   41.1    57    3.3   225      5.5   701.7    0.00     566    999.0    -0.6
 275    8:50   42.4    53    3.1   210      7.3   701.6    0.00     590    999.0    -0.7
 275    9:00   42.9    50    4.1   225      8.2   701.7    0.00     615    999.0    -0.6
 275    9:10   43.8    46    4.3   223      8.5   701.7    0.00     638    999.0    -0.6
 275    9:20   45.4    39    3.2   242      9.0   701.6    0.00     664    999.0    -0.6
 275    9:30   48.3    17    3.9    45      9.6   701.8    0.00     687    999.0    -0.7
 275    9:40   48.8    15    5.0    43     10.9   701.8    0.00     707    999.0    -0.8
 275    9:50   49.0    13    6.0    17     15.1   701.8    0.00     724    999.0    -0.7
 275   10:00   48.9    17    4.6    57      8.7   702.0    0.00     737    999.0    -0.6
 275   10:10   49.1    18    3.5    42     10.8   702.0    0.00     752    999.0    -0.7
 275   10:20   50.4    16    3.6    38     11.5   702.2    0.00     765    999.0    -0.8
 275   10:30   49.0    11    6.3    40     14.0   702.2    0.00     777    999.0    -0.8
 275   10:40   48.8    12    5.7    28     13.4   702.3    0.00     784    999.0    -0.7
 275   10:50   48.5    11    5.9    18     14.5   702.4    0.00     793    999.0    -0.6
 275   11:00   48.7    10    6.5     2     12.8   702.5    0.00     798    999.0    -0.6
 275   11:10   48.7    11    5.2    40     13.3   702.5    0.00     801    999.0    -0.7
 275   11:20   49.0    12    6.0    49     15.6   702.5    0.00     802    999.0    -0.7
 275   11:30   48.5    10    5.6    51     11.9   702.7    0.00     804    999.0    -0.7
 275   11:40   48.0    10    6.8    48     12.7   702.5    0.00     804    999.0    -0.7
 275   11:50   48.2     9    6.5    53     12.4   702.4    0.00     801    999.0    -0.7
 275   12:00   48.0    10    6.3    68     12.2   702.4    0.00     796    999.0    -0.5
 275   12:10   48.1    10    6.5    67     11.1   702.4    0.00     789    999.0    -0.6
 275   12:20   48.1    11    5.7    46     11.1   702.4    0.00     779    999.0    -0.7
 275   12:30   48.9    12    3.9    62      9.7   702.5    0.00     769    999.0    -0.7
 275   12:40   49.9    14    3.7    67      9.3   702.4    0.00     758    999.0    -0.6
 275   12:50   50.2    14    3.2    40      7.7   702.5    0.00     742    999.0    -0.8
 275   13:00   50.0    15    3.3   167      7.1   702.5    0.00     723    999.0    -0.5
 275   13:10   49.8    25    5.0   226     11.5   702.4    0.00     707    999.0    -0.7
 275   13:20   48.4    26    6.1   231     11.2   702.5    0.00     690    999.0    -0.6
 275   13:30   49.2    24    4.5   224     11.1   702.6    0.00     670    999.0    -0.6
 275   13:40   49.2    26    5.9   235     11.3   702.6    0.00     649    999.0    -0.5
 275   13:50   49.1    26    4.4   234      9.6   702.8    0.00     627    999.0    -0.5
 275   14:00   49.9    25    2.8   227      8.0   702.8    0.00     605    999.0    -0.6
 275   14:10   50.1    24    5.9   252     12.7   702.9    0.00     582    999.0    -0.6
 275   14:20   50.0    23    5.9   233     13.2   702.8    0.00     557    999.0    -0.6
 275   14:30   49.3    21    6.1   235     12.7   702.9    0.00     532    999.0    -0.6
 275   14:40   49.2    19    6.6   241     13.5   702.9    0.00     504    999.0    -0.6
 275   14:50   49.0    22    7.3   251     11.6   703.0    0.00     475    999.0    -0.6
 275   15:00   48.8    21    6.7   251     11.9   703.0    0.00     445    999.0    -0.6
 275   15:10   49.0    21    5.6   241     11.0   703.2    0.00     415    999.0    -0.6
 275   15:20   48.8    20    6.1   236     13.5   703.1    0.00     382    999.0    -0.7
 275   15:30   48.3    21    6.7   234     11.5   703.1    0.00     351    999.0    -0.6
 275   15:40   48.3    21    6.4   246     11.3   703.0    0.00     319    999.0    -0.6
 275   15:50   48.7    20    4.7   222     11.4   703.0    0.00     286    999.0    -0.6
 275   16:00   48.7    20    5.4   238     11.2   703.0    0.00     253    999.0    -0.7
 275   16:10   48.7    20    5.3   240     10.1   703.1    0.00     220    999.0    -0.7
 275   16:20   47.9    21    5.6   241     11.4   703.1    0.00     188    999.0    -0.7
 275   16:30   47.8    21    3.9   228      8.7   703.1    0.00     157    999.0    -0.7
 275   16:40   47.7    21    3.3   223     10.8   703.1    0.00     124    999.0    -0.8
 275   16:50   46.4    21    3.3   227      8.5   703.1    0.00      41    999.0    -0.8
 275   17:00   43.9    24    2.2   214      6.1   703.2    0.00      10    999.0    -0.7
 275   17:10   42.0    28    1.8   234      4.8   703.3    0.00       8    999.0    -0.8
 275   17:20   39.7    32    1.0   156      3.1   703.3    0.00       5    999.0    -0.6
 275   17:30   38.7    33    0.3   232      2.5   703.3    0.00       2    999.0    -0.6
 275   17:40   37.6    34    1.8   156      3.9   703.3    0.00       1    999.0    -0.6
 275   17:50   35.6    40    0.4   141      2.3   703.3    0.00       0    999.0    -0.5
 275   18:00   34.1    41    1.0   166      3.1   703.4    0.00       0    999.0    -0.5
 275   18:10   32.3    44    0.8   267      2.9   703.4    0.00       0    999.0    -0.4
 275   18:20   31.8    46    1.0   212      3.0   703.6    0.00       0    999.0    -0.3
 275   18:30   31.4    45    0.7   237      3.1   703.6    0.00       0    999.0    -0.2
 275   18:40   31.5    44    1.9   233      5.3   703.6    0.00       0    999.0    -0.2
 275   18:50   30.7    47    2.2   212      5.3   703.6    0.00       0    999.0    -0.4
 275   19:00   29.8    47    0.5   231      3.6   703.8    0.00       0    999.0    -0.2
 275   19:10   29.3    48    1.1   230      3.7   703.8    0.00       0    999.0    -0.2
 275   19:20   29.8    48    0.6   189      2.6   703.9    0.00       0    999.0    -0.2
 275   19:30   28.6    53    1.0   249      3.3   704.0    0.00       0    999.0    -0.4
 275   19:40   27.6    54    0.7   236      3.4   704.1    0.00       0    999.0    -0.2
 275   19:50   27.8    53    0.7   226      3.6   704.1    0.00       0    999.0    -0.2
 275   20:00   27.9    53    0.4   226      2.9   704.2    0.00       0    999.0    -0.2
 275   20:10   27.8    53    1.5   221      4.3   704.3    0.00       0    999.0    -0.4
 275   20:20   27.9    53    1.4   230      5.6   704.3    0.00       0    999.0    -0.3
 275   20:30   26.8    56    1.3   203      5.0   704.3    0.00       0    999.0    -0.3
 275   20:40   26.9    55    2.6   234      4.7   704.4    0.00       0    999.0    -0.4
 275   20:50   27.3    56    1.4   176      3.2   704.5    0.00       0    999.0    -0.3
 275   21:00   27.4    54    1.4   216      4.6   704.5    0.00       0    999.0    -0.3
 275   21:10   27.8    50    0.6   242      2.8   704.5    0.00       0    999.0    -0.3
 275   21:20   27.2    53    1.3   138      3.3   704.5    0.00       0    999.0    -0.4
 275   21:30   27.2    50    0.7   122      2.8   704.6    0.00       0    999.0    -0.3
 275   21:40   26.7    51    1.4   124      3.4   704.6    0.00       0    999.0    -0.4
 275   21:50   26.2    51    1.1   126      3.7   704.5    0.00       0    999.0    -0.3
 275   22:00   25.8    50    1.5   136      3.1   704.5    0.00       0    999.0    -0.3
 275   22:10   26.4    48    1.6   158      4.9   704.6    0.00       0    999.0    -0.3
 275   22:20   26.3    46    2.0   218      6.6   704.6    0.00       0    999.0    -0.3
 275   22:30   25.9    48    1.9   127      3.4   704.6    0.00       0    999.0    -0.4
 275   22:40   25.0    51    1.3   125      3.9   704.6    0.00       0    999.0    -0.3
 275   22:50   25.0    48    0.4   208      3.5   704.6    0.00       0    999.0    -0.2
 275   23:00   25.2    46    1.3   141      3.3   704.6    0.00       0    999.0    -0.3
 275   23:10   26.0    45    1.6   114      3.9   704.5    0.00       0    999.0    -0.4
 275   23:20   25.1    46    1.7   182      4.3   704.6    0.00       0    999.0    -0.4
 275   23:30   25.1    45    0.9   197      4.7   704.4    0.00       0    999.0    -0.3
 275   23:40   24.8    45    0.8   146      2.6   704.6    0.00       0    999.0    -0.3
 275   23:50   24.2    44    1.5   126      3.4   704.5    0.00       0    999.0    -0.3

Return to Crooked Creek Research Lab graphs page.


Western Regional Climate Center,wrcc@dri.edu